| time (UTC) | temp C | wind direction | speed KPH | gust KPH | rain 1hr cm | rain 24hr cm | rain mn cm | humidity % | barometer mb |
| 20260831230120 | 31 | 123 | 8.0 | 19.3 | 0.00 | 0.30 | 0.30 | 48 | 1011.4 |
| 20260831225219 | 31 | 124 | 8.0 | 17.7 | 0.00 | 0.30 | 0.30 | 48 | 1011.7 |
| 20260831224320 | 31 | 132 | 8.0 | 19.3 | 0.00 | 0.30 | 0.30 | 48 | 1011.7 |
| 20260831223420 | 31 | 104 | 8.0 | 19.3 | 0.00 | 0.30 | 0.30 | 48 | 1011.7 |
| 20260831222520 | 31 | 105 | 6.4 | 19.3 | 0.00 | 0.30 | 0.30 | 49 | 1011.9 |
| 20260831221619 | 31 | 130 | 6.4 | 16.1 | 0.00 | 0.30 | 0.30 | 52 | 1012.1 |
| 20260831220719 | 31 | 110 | 8.0 | 16.1 | 0.00 | 0.30 | 0.30 | 52 | 1012.5 |
| 20260831215819 | 31 | 130 | 8.0 | 19.3 | 0.00 | 0.30 | 0.30 | 52 | 1012.9 |
| 20260831214020 | 30 | 118 | 8.0 | 22.5 | 0.00 | 0.30 | 0.30 | 52 | 1013.4 |
| 20260831213119 | 30 | 130 | 6.4 | 14.5 | 0.00 | 0.30 | 0.30 | 52 | 1013.6 |
| 20260831212219 | 30 | 117 | 8.0 | 17.7 | 0.00 | 0.30 | 0.30 | 52 | 1013.7 |
| 20260831211319 | 30 | 106 | 9.7 | 22.5 | 0.00 | 0.30 | 0.30 | 54 | 1013.9 |
| 20260831205519 | 30 | 122 | 9.7 | 19.3 | 0.00 | 0.30 | 0.30 | 54 | 1014.2 |
| 20260831204619 | 29 | 109 | 11.3 | 22.5 | 0.00 | 0.30 | 0.30 | 55 | 1014.4 |
| 20260831202819 | 29 | 139 | 9.7 | 29.0 | 0.00 | 0.30 | 0.30 | 59 | 1014.6 |
| 20260831201919 | 29 | 143 | 8.0 | 24.1 | 0.00 | 0.30 | 0.30 | 60 | 1014.7 |
| 20260831201019 | 28 | 119 | 9.7 | 19.3 | 0.00 | 0.30 | 0.30 | 62 | 1014.6 |
| 20260831200119 | 27 | 133 | 9.7 | 22.5 | 0.00 | 0.30 | 0.30 | 65 | 1014.7 |
| 20260831195219 | 27 | 140 | 8.0 | 22.5 | 0.00 | 0.30 | 0.30 | 65 | 1014.7 |
| 20260831194319 | 27 | 139 | 6.4 | 22.5 | 0.00 | 0.30 | 0.30 | 65 | 1014.6 |
| 20260831193419 | 27 | 131 | 8.0 | 19.3 | 0.00 | 0.30 | 0.30 | 67 | 1014.8 |
| 20260831191619 | 26 | 112 | 6.4 | 22.5 | 0.00 | 0.30 | 0.30 | 71 | 1015.0 |
| 20260831190719 | 26 | 124 | 6.4 | 16.1 | 0.00 | 0.30 | 0.30 | 71 | 1014.9 |
| 20260831185819 | 26 | 144 | 6.4 | 17.7 | 0.00 | 0.30 | 0.30 | 70 | 1015.0 |
| 20260831184919 | 26 | 154 | 8.0 | 16.1 | 0.00 | 0.30 | 0.30 | 70 | 1015.3 |
| 20260831183119 | 26 | 153 | 8.0 | 17.7 | 0.00 | 0.30 | 0.30 | 75 | 1014.9 |
| 20260831182219 | 26 | 149 | 4.8 | 20.9 | 0.00 | 0.30 | 0.30 | 76 | 1014.8 |
| 20260831181319 | 26 | 123 | 6.4 | 14.5 | 0.00 | 0.30 | 0.30 | 78 | 1014.9 |
| 20260831180419 | 25 | 104 | 6.4 | 14.5 | 0.00 | 0.30 | 0.30 | 82 | 1015.0 |
| 20260831175519 | 25 | 96 | 6.4 | 9.7 | 0.00 | 0.30 | 0.30 | 84 | 1015.3 |
| 20260831174619 | 25 | 86 | 8.0 | 14.5 | 0.00 | 0.30 | 0.30 | 84 | 1015.5 |
| 20260831173719 | 25 | 75 | 4.8 | 14.5 | 0.00 | 0.30 | 0.30 | 84 | 1015.6 |
| 20260831172819 | 25 | 60 | 4.8 | 12.9 | 0.00 | 0.30 | 0.30 | 84 | 1015.9 |
| 20260831171919 | 25 | 67 | 6.4 | 12.9 | 0.00 | 0.30 | 0.30 | 84 | 1015.6 |
| 20260831171019 | 24 | 70 | 6.4 | 11.3 | 0.03 | 0.30 | 0.30 | 84 | 1015.3 |
| 20260831170119 | 24 | 78 | 8.0 | 14.5 | 0.05 | 0.30 | 0.30 | 84 | 1015.2 |
| 20260831165219 | 23 | 90 | 9.7 | 17.7 | 0.08 | 0.30 | 0.30 | 85 | 1015.3 |
| 20260831164319 | 24 | 80 | 8.0 | 16.1 | 0.13 | 0.30 | 0.30 | 85 | 1015.3 |
| 20260831162519 | 23 | 63 | 8.0 | 19.3 | 0.23 | 0.30 | 0.30 | 85 | 1015.1 |
| 20260831161619 | 23 | 65 | 8.0 | 16.1 | 0.25 | 0.30 | 0.30 | 85 | 1015.1 |
| 20260831160719 | 23 | 60 | 9.7 | 17.7 | 0.25 | 0.28 | 0.28 | 85 | 1015.1 |
| 20260831155819 | 23 | 85 | 12.9 | 20.9 | 0.23 | 0.25 | 0.25 | 85 | 1015.0 |
| 20260831154919 | 23 | 89 | 9.7 | 20.9 | 0.18 | 0.20 | 0.20 | 84 | 1014.8 |
| 20260831154019 | 24 | 88 | 6.4 | 14.5 | 0.13 | 0.15 | 0.15 | 84 | 1015.2 |
| 20260831153119 | 24 | 102 | 4.8 | 12.9 | 0.08 | 0.10 | 0.10 | 83 | 1015.4 |
| 20260831152219 | 24 | 125 | 1.6 | 11.3 | 0.05 | 0.05 | 0.08 | 81 | 1015.4 |
| 20260831151319 | 24 | 131 | 4.8 | 11.3 | 0.03 | 0.03 | 0.03 | 79 | 1015.5 |
| 20260831150419 | 24 | 121 | 8.0 | 19.3 | 0.03 | 0.03 | 0.03 | 78 | 1015.2 |
| 20260831145519 | 24 | 123 | 8.0 | 19.3 | 0.03 | 0.03 | 0.03 | 79 | 1015.0 |
| 20260831144619 | 25 | 123 | 4.8 | 19.3 | 0.03 | 0.03 | 0.03 | 79 | 1014.7 |
| 20260831143719 | 25 | 125 | 6.4 | 16.1 | 0.03 | 0.03 | 0.03 | 78 | 1014.7 |
| 20260831142819 | 25 | 118 | 9.7 | 17.7 | 0.00 | 0.00 | 0.00 | 76 | 1014.5 |
| 20260831141919 | 26 | 113 | 12.9 | 20.9 | 0.00 | 0.00 | 0.00 | 71 | 1014.2 |
| 20260831141019 | 26 | 108 | 14.5 | 24.1 | 0.00 | 0.00 | 0.00 | 69 | 1014.1 |
| 20260831140119 | 26 | 103 | 14.5 | 30.6 | 0.00 | 0.00 | 0.00 | 68 | 1013.6 |
| 20260831135219 | 27 | 103 | 12.9 | 27.4 | 0.00 | 0.00 | 0.00 | 66 | 1013.2 |
| 20260831134319 | 27 | 105 | 9.7 | 27.4 | 0.00 | 0.00 | 0.00 | 63 | 1013.1 |
| 20260831133419 | 27 | 106 | 3.2 | 17.7 | 0.00 | 0.00 | 0.00 | 61 | 1012.7 |
| 20260831132519 | 27 | 136 | 3.2 | 8.0 | 0.00 | 0.00 | 0.00 | 62 | 1012.7 |
| 20260831131619 | 27 | 148 | 4.8 | 14.5 | 0.00 | 0.00 | 0.00 | 63 | 1012.4 |
| 20260831130719 | 27 | 155 | 4.8 | 16.1 | 0.00 | 0.00 | 0.00 | 64 | 1012.1 |
| 20260831125819 | 27 | 155 | 6.4 | 14.5 | 0.00 | 0.00 | 0.00 | 64 | 1012.1 |
| 20260831124919 | 27 | 158 | 4.8 | 19.3 | 0.00 | 0.00 | 0.00 | 64 | 1012.0 |
| 20260831124018 | 27 | 166 | 6.4 | 14.5 | 0.00 | 0.00 | 0.00 | 63 | 1012.0 |
| 20260831123118 | 27 | 154 | 4.8 | 14.5 | 0.00 | 0.00 | 0.00 | 63 | 1011.8 |
| 20260831122219 | 27 | 163 | 3.2 | 9.7 | 0.00 | 0.00 | 0.00 | 63 | 1011.6 |
| 20260831121318 | 27 | 193 | 4.8 | 14.5 | 0.00 | 0.00 | 0.00 | 64 | 1011.5 |
| 20260831120418 | 27 | 171 | 1.6 | 14.5 | 0.00 | 0.00 | 0.00 | 62 | 1011.3 |
| 20260831114619 | 27 | 38 | 0.0 | 3.2 | 0.00 | 0.00 | 0.00 | 59 | 1010.9 |
| 20260831113718 | 27 | 38 | 1.6 | 3.2 | 0.00 | 0.00 | 0.00 | 60 | 1010.8 |
| 20260831112818 | 27 | 45 | 3.2 | 9.7 | 0.00 | 0.00 | 0.00 | 59 | 1010.8 |
| 20260831111919 | 27 | 46 | 4.8 | 9.7 | 0.00 | 0.00 | 0.00 | 59 | 1010.8 |
| 20260831111019 | 27 | 57 | 6.4 | 17.7 | 0.00 | 0.00 | 0.00 | 59 | 1010.8 |
| 20260831110119 | 27 | 61 | 6.4 | 17.7 | 0.00 | 0.00 | 0.00 | 58 | 1010.7 |
| 20260831105219 | 27 | 57 | 4.8 | 19.3 | 0.00 | 0.00 | 0.00 | 58 | 1010.5 |
| 20260831104318 | 27 | 61 | 6.4 | 14.5 | 0.00 | 0.00 | 0.00 | 58 | 1010.3 |
| 20260831103419 | 27 | 49 | 6.4 | 14.5 | 0.00 | 0.00 | 0.00 | 59 | 1009.9 |
| 20260831102518 | 27 | 44 | 8.0 | 20.9 | 0.00 | 0.00 | 0.00 | 60 | 1009.7 |
| 20260831101618 | 27 | 55 | 6.4 | 20.9 | 0.00 | 0.00 | 0.00 | 60 | 1009.6 |
| 20260831100719 | 27 | 68 | 4.8 | 12.9 | 0.00 | 0.00 | 0.00 | 59 | 1009.9 |
| 20260831094918 | 27 | 71 | 9.7 | 22.5 | 0.00 | 0.00 | 0.00 | 58 | 1009.7 |
| 20260831094018 | 27 | 67 | 11.3 | 20.9 | 0.00 | 0.00 | 0.00 | 57 | 1009.8 |
| 20260831092218 | 26 | 75 | 12.9 | 29.0 | 0.00 | 0.00 | 0.00 | 60 | 1010.1 |
| 20260831091318 | 26 | 82 | 17.7 | 30.6 | 0.00 | 0.00 | 0.00 | 62 | 1010.1 |
| 20260831090418 | 26 | 78 | 16.1 | 32.2 | 0.00 | 0.00 | 0.00 | 63 | 1010.3 |
| 20260831085518 | 26 | 71 | 16.1 | 29.0 | 0.00 | 0.00 | 0.00 | 64 | 1010.5 |
| 20260831084618 | 26 | 69 | 14.5 | 27.4 | 0.00 | 0.00 | 0.00 | 65 | 1010.3 |
| 20260831083718 | 26 | 76 | 14.5 | 27.4 | 0.00 | 0.00 | 0.00 | 65 | 1010.5 |
| 20260831081918 | 27 | 61 | 9.7 | 22.5 | 0.00 | 0.00 | 0.00 | 63 | 1010.6 |
| 20260831081018 | 27 | 60 | 8.0 | 19.3 | 0.00 | 0.00 | 0.00 | 64 | 1010.8 |
| 20260831080118 | 27 | 49 | 6.4 | 19.3 | 0.00 | 0.00 | 0.00 | 65 | 1010.7 |
| 20260831075218 | 27 | 24 | 8.0 | 14.5 | 0.00 | 0.00 | 0.00 | 67 | 1010.9 |
| 20260831074318 | 27 | 341 | 11.3 | 22.5 | 0.00 | 0.00 | 0.00 | 67 | 1010.9 |
| 20260831073418 | 26 | 337 | 8.0 | 22.5 | 0.00 | 0.00 | 0.00 | 69 | 1010.8 |
| 20260831072518 | 26 | 357 | 9.7 | 24.1 | 0.00 | 0.00 | 0.00 | 69 | 1011.1 |
| 20260831070718 | 27 | 30 | 14.5 | 29.0 | 0.00 | 0.00 | 0.00 | 68 | 1010.5 |
| 20260831065818 | 27 | 354 | 16.1 | 35.4 | 0.00 | 0.00 | 0.00 | 67 | 1010.5 |
| 20260831064918 | 27 | 345 | 16.1 | 32.2 | 0.00 | 0.00 | 0.00 | 67 | 1009.9 |
| 20260831064018 | 27 | 339 | 14.5 | 40.2 | 0.00 | 0.00 | 0.00 | 68 | 1009.8 |
| 20260831063118 | 27 | 349 | 17.7 | 33.8 | 0.00 | 0.00 | 0.00 | 68 | 1009.7 |
| 20260831062218 | 27 | 346 | 16.1 | 33.8 | 0.00 | 0.00 | 0.00 | 65 | 1009.6 |
| 20260831061318 | 28 | 347 | 12.9 | 35.4 | 0.00 | 0.00 | 0.00 | 61 | 1009.8 |
| 20260831060418 | 28 | 358 | 9.7 | 32.2 | 0.00 | 0.00 | 0.00 | 62 | 1009.9 |
| 20260831054618 | 29 | 271 | 4.8 | 16.1 | 0.00 | 0.00 | 0.00 | 60 | 1009.1 |
| 20260831052818 | 28 | 253 | 11.3 | 22.5 | 0.00 | 0.00 | 0.00 | 64 | 1008.9 |
| 20260831051018 | 27 | 229 | 11.3 | 33.8 | 0.00 | 0.00 | 0.00 | 65 | 1009.6 |
| 20260831045218 | 29 | 213 | 12.9 | 32.2 | 0.00 | 0.00 | 0.00 | 56 | 1010.0 |
| 20260831044318 | 30 | 198 | 17.7 | 33.8 | 0.00 | 0.00 | 0.00 | 55 | 1009.7 |
| 20260831043418 | 30 | 201 | 16.1 | 41.8 | 0.00 | 0.00 | 0.00 | 52 | 1009.3 |
| 20260831041618 | 31 | 202 | 14.5 | 33.8 | 0.00 | 0.00 | 0.00 | 46 | 1009.0 |
| 20260831040718 | 32 | 201 | 11.3 | 35.4 | 0.00 | 0.00 | 0.00 | 46 | 1008.9 |
| 20260831035818 | 33 | 201 | 12.9 | 35.4 | 0.00 | 0.00 | 0.00 | 45 | 1008.6 |
| 20260831034918 | 34 | 206 | 11.3 | 32.2 | 0.00 | 0.00 | 0.00 | 41 | 1008.6 |
| 20260831033118 | 37 | 306 | 1.6 | 8.0 | 0.00 | 0.00 | 0.00 | 32 | 1007.6 |
| 20260831032218 | 37 | 344 | 1.6 | 6.4 | 0.00 | 0.00 | 0.00 | 32 | 1007.5 |
| 20260831031318 | 37 | 341 | 1.6 | 4.8 | 0.00 | 0.00 | 0.00 | 32 | 1007.4 |
| 20260831030418 | 38 | 327 | 3.2 | 8.0 | 0.00 | 0.00 | 0.00 | 32 | 1007.3 |
| 20260831025518 | 38 | 302 | 4.8 | 9.7 | 0.00 | 0.00 | 0.00 | 32 | 1007.1 |
| 20260831024618 | 38 | 292 | 4.8 | 14.5 | 0.00 | 0.00 | 0.00 | 32 | 1007.2 |
| 20260831023718 | 38 | 301 | 3.2 | 12.9 | 0.00 | 0.00 | 0.00 | 32 | 1006.9 |
| 20260831022818 | 38 | 271 | 4.8 | 9.7 | 0.00 | 0.00 | 0.00 | 32 | 1006.8 |
| 20260831021018 | 38 | 304 | 3.2 | 8.0 | 0.00 | 0.00 | 0.00 | 31 | 1006.3 |
| 20260831020118 | 38 | 254 | 4.8 | 8.0 | 0.00 | 0.00 | 0.00 | 31 | 1006.3 |
| 20260831015218 | 38 | 267 | 6.4 | 12.9 | 0.00 | 0.00 | 0.00 | 31 | 1006.2 |
| 20260831014318 | 38 | 260 | 4.8 | 12.9 | 0.00 | 0.00 | 0.00 | 30 | 1006.0 |
| 20260831013418 | 38 | 297 | 4.8 | 11.3 | 0.00 | 0.00 | 0.00 | 30 | 1005.8 |
| 20260831012518 | 39 | 308 | 3.2 | 16.1 | 0.00 | 0.00 | 0.00 | 30 | 1005.8 |
| 20260831011618 | 39 | 285 | 1.6 | 4.8 | 0.00 | 0.00 | 0.00 | 30 | 1005.8 |
| 20260831010718 | 39 | 281 | 1.6 | 6.4 | 0.00 | 0.00 | 0.00 | 30 | 1005.9 |
| 20260831004018 | 40 | 255 | 6.4 | 12.9 | 0.00 | 0.00 | 0.00 | 29 | 1006.2 |
| 20260831003118 | 40 | 262 | 6.4 | 20.9 | 0.00 | 0.00 | 0.00 | 29 | 1006.2 |
| 20260831002218 | 40 | 280 | 3.2 | 11.3 | 0.00 | 0.00 | 0.00 | 28 | 1006.1 |
| 20260831001318 | 40 | 44 | 3.2 | 8.0 | 0.00 | 0.00 | 0.00 | 28 | 1006.1 |
| 20260831000417 | 40 | 81 | 3.2 | 6.4 | 0.00 | 0.00 | 0.00 | 28 | 1006.3 |
| 20260830235517 | 40 | 358 | 3.2 | 11.3 | 0.00 | 0.00 | 0.00 | 28 | 1006.4 |
| 20260830234617 | 41 | 254 | 4.8 | 12.9 | 0.00 | 0.00 | 0.00 | 28 | 1006.4 |
| 20260830233718 | 41 | 263 | 8.0 | 14.5 | 0.00 | 0.00 | 0.00 | 28 | 1006.5 |
| 20260830232817 | 41 | 300 | 8.0 | 17.7 | 0.00 | 0.00 | 0.00 | 27 | 1006.6 |
| 20260830231918 | 41 | 293 | 9.7 | 17.7 | 0.00 | 0.00 | 0.00 | 27 | 1006.7 |